Aviation Digital Data Service (ADDS)

Output produced by METARs form (1234 UTC 20 July 2017)
found at http://www.aviationweather.gov/adds/metars/
 
HSOB 200800Z 23017KT CAVOK 31/20 Q1013
TAF HSOB 201100Z 2012/2118 23014G24KT CAVOK 
     TEMPO 2012/2018 6000 FEW040 SCT140
       
HSSJ 201100Z 19003KT 9999 FEW040 30/18 Q1014
TAF HSSJ 201000Z 2012/2118 VRB03KT 8000 -TSRA SCT040 BKN140 
     TEMPO 2016/2022 12008G18KT 6000 TSRA FEW045CB BKN090 
     BECMG 2022/2100 VRB03KT 9999 SCT040 BKN140
       
TAF HSKA 201100Z 2012/2118 21006KT CAVOK 
     TEMPO 2012/2015 9999 FEW040 SCT140
       
HSSS 201230Z VRB03KT CAVOK 41/10 Q1006 NOSIG
HSSS 201100Z 2012/2118 23010G20KT CAVOK 
     TEMPO 2012/2015 9999 FEW040 SCT140
       
HSPN 200800Z 09008KT CAVOK 40/10 Q1003
TAF HSPN 201100Z 2012/2118 09008G18KT CAVOK 
     TEMPO 2012/2016 6000 NSC 
     BECMG 2020/2022 27008KT